Time;durP1;ratioP1;P1;durP2;ratioP2;P2;SDS_P1;SDS_P2;PMS_P1;PMS_P2;Temp;Humidity;BMP_temperature;BMP_pressure;BME280_temperature;BME280_humidity;BME280_pressure;Samples;Min_cycle;Max_cycle;Signal;HPM_P1;HPM_P2
2023/08/07 00:01:32;;;;;;;4.45;3.40;;;;;;;18.97;58.97;96962.31;10502719;27;20062;-51
2023/08/07 00:06:31;;;;;;;3.85;3.40;;;;;;;18.91;59.16;96955.59;10504217;28;20034;-51
2023/08/07 00:11:30;;;;;;;5.65;3.55;;;;;;;18.51;59.52;96915.38;10506582;27;20051;-51
2023/08/07 00:16:29;;;;;;;3.55;3.25;;;;;;;18.81;59.51;96977.97;10509979;27;20080;-50
2023/08/07 00:21:28;;;;;;;4.60;3.17;;;;;;;18.72;59.19;96970.53;10509143;27;20032;-48
2023/08/07 00:26:27;;;;;;;4.60;3.70;;;;;;;18.78;59.74;96992.13;10507264;27;20027;-51
2023/08/07 00:31:30;;;;;;;4.45;3.88;;;;;;;18.77;59.37;96994.81;10505808;27;20071;-48
2023/08/07 00:36:31;;;;;;;4.45;3.83;;;;;;;18.81;59.36;96980.63;10505274;27;20066;-49
2023/08/07 00:41:30;;;;;;;3.92;3.50;;;;;;;18.75;59.37;96983.50;10505002;27;20024;-49
2023/08/07 00:46:29;;;;;;;4.43;4.03;;;;;;;18.75;59.87;96987.00;10503915;27;20106;-51
2023/08/07 00:51:29;;;;;;;4.70;4.18;;;;;;;18.71;59.26;96998.56;10503483;28;20059;-49
2023/08/07 00:56:28;;;;;;;7.10;4.35;;;;;;;18.72;59.80;97002.06;10503060;28;20019;-51
2023/08/07 01:01:27;;;;;;;4.40;4.00;;;;;;;18.70;59.59;97006.53;10508436;27;20090;-50
2023/08/07 01:06:26;;;;;;;5.15;4.18;;;;;;;18.65;59.25;97009.34;10504246;27;20059;-49
2023/08/07 01:11:49;;;;;;;4.75;4.28;;;;;;;18.66;59.77;97013.66;10502664;27;20034;-49
2023/08/07 01:17:05;;;;;;;5.28;4.72;;;;;;;18.58;59.53;97011.38;10498813;27;20509;-48
2023/08/07 01:22:05;;;;;;;6.38;4.53;;;;;;;18.65;59.63;97024.25;10494248;27;20069;-51
2023/08/07 01:27:31;;;;;;;3.90;3.50;;;;;;;18.53;59.28;97037.00;10498971;28;20074;-48
2023/08/07 01:32:39;;;;;;;3.88;3.58;;;;;;;18.55;59.68;97048.31;10504161;27;20481;-51
2023/08/07 01:37:40;;;;;;;3.92;3.60;;;;;;;18.53;59.60;97047.53;10497748;27;20046;-51
2023/08/07 01:42:40;;;;;;;4.82;3.75;;;;;;;18.58;59.71;97063.94;10502434;27;20517;-50
2023/08/07 01:47:39;;;;;;;3.95;3.55;;;;;;;18.52;59.93;97063.34;10501471;27;20483;-50
2023/08/07 01:52:38;;;;;;;3.63;3.33;;;;;;;18.50;59.52;97057.31;10500776;27;20504;-48
2023/08/07 01:57:37;;;;;;;3.75;3.45;;;;;;;18.55;59.72;97060.56;10499922;28;20511;-51
2023/08/07 02:02:37;;;;;;;4.70;3.70;;;;;;;18.32;59.74;97014.31;10498472;28;20063;-51
2023/08/07 02:07:36;;;;;;;3.35;3.05;;;;;;;18.49;59.64;97040.69;10479034;28;20071;-49
2023/08/07 02:12:35;;;;;;;4.43;3.80;;;;;;;18.54;59.66;97045.75;10501808;28;20063;-51
2023/08/07 02:17:35;;;;;;;3.88;3.55;;;;;;;18.48;59.51;97065.28;10503421;28;20468;-52
2023/08/07 02:22:34;;;;;;;3.70;3.40;;;;;;;18.45;59.46;97068.00;10501727;28;20070;-51
2023/08/07 02:27:33;;;;;;;3.42;3.13;;;;;;;18.32;59.66;97058.97;10500998;28;20110;-51
2023/08/07 02:32:32;;;;;;;8.52;4.13;;;;;;;18.11;59.81;97029.25;10500158;28;20114;-50
2023/08/07 02:37:31;;;;;;;5.10;3.70;;;;;;;18.41;59.84;97084.84;10498278;28;20469;-51
2023/08/07 02:42:30;;;;;;;3.70;3.40;;;;;;;18.33;59.66;97071.19;10498044;28;20486;-51
2023/08/07 02:47:29;;;;;;;3.33;3.03;;;;;;;18.40;59.30;97098.88;10498088;28;20114;-50
2023/08/07 02:52:29;;;;;;;4.38;3.60;;;;;;;18.36;59.15;97098.19;10505453;27;20019;-49
2023/08/07 02:57:28;;;;;;;3.17;2.95;;;;;;;18.33;58.94;97100.06;10510821;27;20110;-49
2023/08/07 03:02:28;;;;;;;4.97;3.22;;;;;;;18.35;59.37;97103.50;10508108;27;20032;-50
2023/08/07 03:07:27;;;;;;;3.38;2.90;;;;;;;18.28;57.92;97107.28;10504018;27;20070;-52
2023/08/07 03:12:26;;;;;;;3.45;3.05;;;;;;;18.38;57.99;97116.47;10506759;27;20067;-51
2023/08/07 03:17:25;;;;;;;3.53;3.22;;;;;;;18.39;57.79;97112.97;10499804;28;20093;-52
2023/08/07 03:22:24;;;;;;;5.03;3.30;;;;;;;18.27;59.71;97130.09;10505634;27;20458;-51
2023/08/07 03:27:23;;;;;;;6.82;4.22;;;;;;;17.81;61.72;97118.00;10504391;27;20488;-49
2023/08/07 03:32:22;;;;;;;5.05;3.95;;;;;;;17.73;62.66;97119.13;10503675;28;20016;-52
2023/08/07 03:37:21;;;;;;;7.47;4.35;;;;;;;17.63;63.82;97133.50;10509152;27;20052;-51
2023/08/07 03:42:20;;;;;;;6.55;4.60;;;;;;;17.49;64.17;97125.31;10508997;27;20031;-51
2023/08/07 03:47:19;;;;;;;4.97;4.05;;;;;;;17.50;64.30;97134.91;10507404;27;20537;-50
2023/08/07 03:52:18;;;;;;;4.97;3.65;;;;;;;17.48;63.68;97134.97;10506387;27;20547;-50
2023/08/07 03:57:18;;;;;;;5.93;5.30;;;;;;;17.60;63.62;97146.75;10505183;27;20086;-51
2023/08/07 04:02:17;;;;;;;5.85;4.22;;;;;;;17.67;63.80;97145.59;10504239;27;20063;-51
2023/08/07 04:07:15;;;;;;;4.60;3.90;;;;;;;17.60;63.77;97148.53;10501789;27;20062;-52
2023/08/07 04:12:14;;;;;;;7.15;4.80;;;;;;;17.66;64.62;97154.38;10501897;27;20039;-50
2023/08/07 04:17:13;;;;;;;9.63;4.65;;;;;;;17.73;64.94;97163.72;10507066;27;20142;-49
2023/08/07 04:22:12;;;;;;;6.70;4.15;;;;;;;17.77;64.32;97152.22;10506910;27;20066;-52
2023/08/07 04:27:12;;;;;;;3.63;3.22;;;;;;;17.91;62.88;97172.66;10505365;27;20045;-52
2023/08/07 04:32:11;;;;;;;13.25;5.35;;;;;;;17.98;63.80;97175.91;10504643;27;20063;-49
2023/08/07 04:37:09;;;;;;;6.50;4.22;;;;;;;17.21;62.68;97050.31;10503156;27;20034;-52
2023/08/07 04:42:08;;;;;;;8.35;3.90;;;;;;;18.07;62.75;97172.91;10481582;28;20528;-52
2023/08/07 04:47:07;;;;;;;3.13;2.70;;;;;;;18.21;60.50;97169.72;10500876;27;20059;-51
2023/08/07 04:52:07;;;;;;;7.75;2.83;;;;;;;18.37;59.67;97172.56;10500592;27;20043;-49
2023/08/07 04:57:06;;;;;;;4.07;3.08;;;;;;;18.53;58.83;97167.53;10498999;28;20055;-49
2023/08/07 05:02:05;;;;;;;5.63;2.70;;;;;;;18.61;57.97;97174.16;10504431;27;20044;-50
2023/08/07 05:07:04;;;;;;;4.57;3.90;;;;;;;18.41;58.63;97132.13;10479398;28;20115;-50
2023/08/07 05:12:04;;;;;;;2.60;2.40;;;;;;;18.55;58.75;97171.81;10453106;27;20120;-50
2023/08/07 05:17:03;;;;;;;3.22;2.70;;;;;;;18.61;58.84;97181.19;10408409;28;20111;-50
2023/08/07 05:22:03;;;;;;;3.25;2.17;;;;;;;18.75;56.55;97191.16;10408083;28;20056;-51
2023/08/07 05:27:02;;;;;;;2.72;2.08;;;;;;;18.80;55.81;97181.28;10406724;28;20060;-53
2023/08/07 05:32:01;;;;;;;2.30;2.10;;;;;;;19.07;55.68;97179.25;10407787;28;20034;-52
2023/08/07 05:37:00;;;;;;;2.72;2.28;;;;;;;19.33;54.93;97182.47;10405521;28;20116;-52
2023/08/07 05:41:59;;;;;;;2.78;1.95;;;;;;;19.60;53.55;97177.75;10408081;28;20111;-51
2023/08/07 05:46:58;;;;;;;2.13;1.92;;;;;;;19.74;52.29;97179.72;10406657;28;20077;-50
2023/08/07 05:51:57;;;;;;;2.85;2.00;;;;;;;19.79;52.19;97167.19;10408422;28;20402;-48
2023/08/07 05:56:56;;;;;;;2.85;1.80;;;;;;;19.95;51.21;97162.06;10404747;28;20039;-49
2023/08/07 06:01:55;;;;;;;2.00;1.90;;;;;;;20.17;51.16;97168.00;10408129;28;20091;-50
2023/08/07 06:06:54;;;;;;;2.15;1.90;;;;;;;20.29;49.94;97166.53;10406771;28;20098;-51
2023/08/07 06:11:53;;;;;;;2.20;1.90;;;;;;;20.40;49.29;97176.56;10406639;28;20076;-51
2023/08/07 06:16:52;;;;;;;2.38;2.15;;;;;;;20.39;50.77;97178.31;10402187;28;20550;-51
2023/08/07 06:21:51;;;;;;;3.17;1.67;;;;;;;20.68;50.64;97182.19;10403612;28;20035;-50
2023/08/07 06:26:50;;;;;;;3.63;2.17;;;;;;;20.69;49.96;97175.13;10410101;28;20589;-49
2023/08/07 06:31:49;;;;;;;2.22;2.03;;;;;;;20.82;50.52;97176.19;10406647;28;20051;-49
2023/08/07 06:36:48;;;;;;;2.35;1.60;;;;;;;21.07;47.33;97190.75;10408946;28;20039;-49
2023/08/07 06:41:47;;;;;;;1.70;1.60;;;;;;;21.01;44.78;97186.66;10415012;28;20037;-51
2023/08/07 06:46:46;;;;;;;2.13;1.50;;;;;;;21.06;44.80;97194.31;10414167;28;20025;-51
2023/08/07 06:51:44;;;;;;;1.20;1.17;;;;;;;21.20;43.20;97198.88;10415269;28;20116;-48
2023/08/07 06:56:44;;;;;;;1.63;1.40;;;;;;;21.18;42.93;97196.31;10414084;28;20137;-50
2023/08/07 07:01:43;;;;;;;1.40;1.30;;;;;;;21.37;44.43;97196.22;10411645;28;20079;-50
2023/08/07 07:06:42;;;;;;;3.75;1.55;;;;;;;21.38;44.44;97190.00;10412007;28;20029;-51
2023/08/07 07:11:43;;;;;;;1.40;1.30;;;;;;;21.51;43.10;97201.59;10410807;28;20032;-50
2023/08/07 07:16:43;;;;;;;1.45;1.35;;;;;;;21.23;43.42;97167.06;10409289;28;20135;-51
2023/08/07 07:21:42;;;;;;;2.05;1.42;;;;;;;21.52;42.66;97205.97;10412113;28;20139;-50
2023/08/07 07:26:41;;;;;;;3.25;1.58;;;;;;;21.63;42.68;97204.53;10412311;28;20123;-50
2023/08/07 07:31:40;;;;;;;1.67;1.40;;;;;;;21.68;42.96;97205.13;10411430;28;20031;-50
2023/08/07 07:36:39;;;;;;;2.45;1.50;;;;;;;21.80;42.32;97212.34;10411566;28;20025;-52
2023/08/07 07:41:38;;;;;;;1.83;1.58;;;;;;;21.67;42.58;97169.09;10415694;28;20040;-51
2023/08/07 07:46:37;;;;;;;2.40;1.50;;;;;;;21.70;43.13;97206.72;10413085;28;20474;-50
2023/08/07 07:51:37;;;;;;;1.88;1.70;;;;;;;21.76;44.17;97206.41;10408146;28;20754;-51
2023/08/07 07:56:37;;;;;;;5.78;2.10;;;;;;;22.11;43.83;97211.56;10409978;28;20071;-51
2023/08/07 08:01:36;;;;;;;1.75;1.63;;;;;;;22.26;44.36;97217.75;10408516;28;20665;-51
2023/08/07 08:06:35;;;;;;;1.50;1.40;;;;;;;22.46;41.41;97215.75;10404433;28;20679;-51
2023/08/07 08:11:34;;;;;;;1.67;1.55;;;;;;;22.13;44.09;97212.34;10411382;28;20068;-49
2023/08/07 08:16:33;;;;;;;1.88;1.73;;;;;;;22.09;44.94;97213.44;10411412;28;20128;-50
2023/08/07 08:21:32;;;;;;;3.72;1.85;;;;;;;22.04;44.74;97206.69;10409237;28;20119;-49
2023/08/07 08:26:31;;;;;;;3.45;1.77;;;;;;;21.65;45.79;97214.06;10404857;28;20112;-51
2023/08/07 08:31:30;;;;;;;4.30;2.08;;;;;;;21.73;46.06;97184.59;10408852;28;20095;-49
2023/08/07 08:36:29;;;;;;;5.07;1.88;;;;;;;22.10;45.73;97212.47;10407637;28;20160;-51
2023/08/07 08:41:30;;;;;;;1.80;1.70;;;;;;;22.27;44.54;97202.75;10404191;28;20040;-50
2023/08/07 08:46:29;;;;;;;1.70;1.60;;;;;;;22.36;44.27;97205.72;10409281;28;20484;-51
2023/08/07 08:51:29;;;;;;;2.25;2.05;;;;;;;22.35;43.89;97171.44;10411910;28;20110;-49
2023/08/07 08:56:30;;;;;;;2.55;1.75;;;;;;;22.55;43.41;97200.25;10403366;28;20115;-52
2023/08/07 09:01:31;;;;;;;3.05;2.00;;;;;;;22.52;43.74;97191.63;10400208;28;20120;-50
2023/08/07 09:06:32;;;;;;;1.92;1.52;;;;;;;22.72;43.23;97180.72;10408511;28;20064;-50
2023/08/07 09:11:33;;;;;;;2.08;1.83;;;;;;;22.86;43.51;97181.72;10408109;28;20063;-50
2023/08/07 09:16:33;;;;;;;3.63;1.70;;;;;;;22.92;42.99;97181.34;10410715;28;20102;-53
2023/08/07 09:21:33;;;;;;;2.88;1.77;;;;;;;23.04;41.93;97177.13;10408825;28;20064;-50
2023/08/07 09:26:33;;;;;;;2.38;1.80;;;;;;;23.02;42.50;97182.50;10410336;28;20065;-52
2023/08/07 09:31:32;;;;;;;4.43;2.55;;;;;;;23.07;41.89;97167.22;10410900;28;20063;-53
2023/08/07 09:36:32;;;;;;;3.00;1.70;;;;;;;23.08;42.15;97136.28;10380155;28;20064;-51
2023/08/07 09:41:31;;;;;;;1.70;1.60;;;;;;;23.32;41.95;97179.78;10402801;28;20055;-50
2023/08/07 09:46:37;;;;;;;1.83;1.73;;;;;;;23.45;40.82;97179.88;10410807;28;20079;-50
2023/08/07 09:51:43;;;;;;;1.65;1.55;;;;;;;23.58;40.46;97185.28;10410478;28;20068;-49
2023/08/07 09:56:43;;;;;;;1.80;1.70;;;;;;;23.81;40.36;97174.06;10409951;28;20506;-50
2023/08/07 10:01:44;;;;;;;2.10;1.90;;;;;;;23.83;40.23;97160.75;10410099;28;20495;-50
2023/08/07 10:06:43;;;;;;;3.13;1.67;;;;;;;23.75;40.54;97144.50;10404531;28;20131;-50
2023/08/07 10:11:43;;;;;;;1.90;1.70;;;;;;;23.96;39.92;97148.41;10396954;28;20116;-50
2023/08/07 10:16:42;;;;;;;3.65;1.70;;;;;;;24.09;39.67;97151.09;10404264;28;20534;-51
2023/08/07 10:21:43;;;;;;;2.75;1.60;;;;;;;24.30;39.09;97163.94;10406189;28;20115;-48
2023/08/07 10:26:46;;;;;;;1.63;1.52;;;;;;;24.53;38.86;97154.44;10406669;28;20109;-52
2023/08/07 10:31:46;;;;;;;2.45;1.70;;;;;;;24.70;37.88;97148.84;10405502;28;20072;-52
2023/08/07 10:36:45;;;;;;;4.47;1.65;;;;;;;24.96;38.85;97143.59;10383144;28;20060;-48
2023/08/07 10:41:46;;;;;;;2.65;1.58;;;;;;;25.39;37.97;97137.94;10386107;28;20028;-49
2023/08/07 10:46:50;;;;;;;2.50;1.73;;;;;;;25.49;38.78;97147.78;10404764;28;20112;-51
2023/08/07 10:51:50;;;;;;;1.98;1.70;;;;;;;25.78;37.60;97144.88;10403148;28;20123;-51
2023/08/07 10:56:54;;;;;;;2.17;1.83;;;;;;;25.95;36.73;97154.31;10407238;28;20056;-52
2023/08/07 11:01:55;;;;;;;3.38;1.75;;;;;;;25.75;36.38;97110.56;10406342;28;20060;-50
2023/08/07 11:06:54;;;;;;;1.58;1.48;;;;;;;25.43;36.20;97126.13;10381166;28;20464;-50
2023/08/07 11:11:53;;;;;;;1.60;1.50;;;;;;;25.36;37.04;97138.16;10399124;28;20107;-50
2023/08/07 11:16:52;;;;;;;1.92;1.73;;;;;;;25.32;36.72;97133.06;10395403;28;20077;-51
2023/08/07 11:21:54;;;;;;;1.80;1.70;;;;;;;25.70;37.97;97129.50;10368451;28;20138;-52
2023/08/07 11:26:55;;;;;;;1.60;1.50;;;;;;;26.03;37.92;97121.84;10373909;28;20120;-52
2023/08/07 11:31:54;;;;;;;2.90;1.67;;;;;;;26.01;37.04;97129.06;10372468;28;20092;-49
2023/08/07 11:36:55;;;;;;;1.60;1.50;;;;;;;26.20;36.90;97112.63;10373364;28;20063;-52
2023/08/07 11:41:54;;;;;;;2.03;1.80;;;;;;;26.49;38.06;97116.63;10411716;28;20068;-49
2023/08/07 11:46:53;;;;;;;1.75;1.65;;;;;;;26.72;37.75;97103.34;10410198;28;20128;-50
2023/08/07 11:51:54;;;;;;;2.22;1.70;;;;;;;26.85;36.09;97095.31;10412771;28;20485;-48
2023/08/07 11:56:53;;;;;;;2.05;1.90;;;;;;;27.06;36.32;97093.63;10409623;28;20067;-51
2023/08/07 12:01:52;;;;;;;1.70;1.60;;;;;;;26.78;35.93;97079.78;10394197;28;20099;-50
2023/08/07 12:06:55;;;;;;;2.97;1.67;;;;;;;27.02;35.79;97094.00;10398165;28;20107;-52
2023/08/07 12:11:59;;;;;;;2.30;1.70;;;;;;;27.37;35.87;97099.19;10414445;28;20076;-52
2023/08/07 12:17:02;;;;;;;1.88;1.77;;;;;;;27.31;36.00;97063.25;10383166;28;20072;-52
2023/08/07 12:22:03;;;;;;;2.83;1.80;;;;;;;27.68;35.78;97088.75;10407255;28;20060;-52
2023/08/07 12:27:05;;;;;;;1.85;1.75;;;;;;;28.17;34.97;97082.09;10411671;28;20071;-50
2023/08/07 12:32:04;;;;;;;1.60;1.50;;;;;;;28.67;33.63;97087.69;10407919;28;20083;-52
2023/08/07 12:37:04;;;;;;;1.90;1.65;;;;;;;28.53;34.00;97090.66;10387068;28;20060;-52
2023/08/07 12:42:05;;;;;;;1.90;1.80;;;;;;;28.60;33.83;97090.00;10416955;28;20059;-51
2023/08/07 12:47:04;;;;;;;3.35;1.98;;;;;;;28.52;34.31;97073.78;10414806;28;20068;-51
2023/08/07 12:52:03;;;;;;;1.90;1.80;;;;;;;28.31;34.31;97104.94;10414601;28;20475;-49
2023/08/07 12:57:03;;;;;;;14.85;2.65;;;;;;;27.72;35.46;97053.72;10415372;28;20063;-49
2023/08/07 13:02:02;;;;;;;1.75;1.60;;;;;;;27.81;34.53;97092.13;10416189;28;20075;-51
2023/08/07 13:07:01;;;;;;;1.70;1.60;;;;;;;27.15;36.25;97100.06;10408232;28;20116;-52
2023/08/07 13:12:00;;;;;;;1.60;1.50;;;;;;;27.25;35.96;97090.34;10408880;28;20020;-52
2023/08/07 13:16:59;;;;;;;3.90;1.83;;;;;;;27.42;35.95;97089.88;10409857;28;20509;-50
2023/08/07 13:21:58;;;;;;;4.22;2.10;;;;;;;27.39;36.51;97095.44;10410351;28;20514;-51
2023/08/07 13:26:57;;;;;;;3.88;1.75;;;;;;;27.50;35.25;97091.09;10411261;28;20107;-51
2023/08/07 13:31:56;;;;;;;2.40;1.83;;;;;;;27.52;35.82;97084.69;10411814;28;20527;-50
2023/08/07 13:36:55;;;;;;;1.65;1.55;;;;;;;27.22;35.87;97098.59;10411303;28;20495;-50
2023/08/07 13:41:54;;;;;;;1.83;1.35;;;;;;;26.95;37.21;97107.75;10412381;28;20550;-51
2023/08/07 13:46:56;;;;;;;3.42;1.70;;;;;;;26.49;37.76;97113.97;10411793;28;20033;-51
2023/08/07 13:51:56;;;;;;;1.50;1.40;;;;;;;26.09;39.16;97116.91;10411581;28;20060;-50
2023/08/07 13:56:55;;;;;;;1.77;1.45;;;;;;;26.39;38.80;97118.25;10410655;28;20072;-52
2023/08/07 14:01:55;;;;;;;2.70;1.52;;;;;;;26.69;39.12;97111.56;10411954;28;20056;-49
2023/08/07 14:06:54;;;;;;;2.88;1.60;;;;;;;27.08;38.01;97112.16;10412214;28;20076;-51
2023/08/07 14:11:53;;;;;;;1.70;1.60;;;;;;;26.76;38.31;97110.13;10412478;28;20071;-49
2023/08/07 14:16:56;;;;;;;1.50;1.40;;;;;;;26.69;38.44;97120.41;10411392;28;20111;-51
2023/08/07 14:21:55;;;;;;;1.52;1.42;;;;;;;26.77;37.93;97119.84;10411698;28;20503;-53
2023/08/07 14:26:54;;;;;;;3.33;1.40;;;;;;;26.83;36.72;97123.81;10411450;28;20107;-51
2023/08/07 14:31:53;;;;;;;1.60;1.40;;;;;;;26.65;37.09;97142.91;10411209;28;20526;-52
2023/08/07 14:36:54;;;;;;;2.35;1.38;;;;;;;26.15;37.93;97145.69;10412099;28;20056;-50
2023/08/07 14:41:54;;;;;;;1.90;1.42;;;;;;;25.91;38.72;97142.19;10411320;28;20067;-50
2023/08/07 14:46:53;;;;;;;1.52;1.30;;;;;;;25.64;39.37;97131.75;10415581;28;20080;-51
2023/08/07 14:51:52;;;;;;;1.42;1.20;;;;;;;25.56;39.69;97145.59;10419338;28;20106;-50
2023/08/07 14:56:51;;;;;;;1.75;1.40;;;;;;;25.53;40.18;97154.59;10419001;28;20105;-51
2023/08/07 15:01:50;;;;;;;2.22;1.42;;;;;;;25.38;39.96;97160.13;10418930;28;20105;-49
2023/08/07 15:06:50;;;;;;;1.48;1.38;;;;;;;25.29;40.26;97151.00;10419117;28;20056;-50
2023/08/07 15:11:49;;;;;;;2.47;1.45;;;;;;;25.08;40.92;97158.66;10418602;28;20066;-51
2023/08/07 15:16:48;;;;;;;1.95;1.67;;;;;;;24.99;41.02;97144.25;10416931;28;20134;-53
2023/08/07 15:21:50;;;;;;;2.88;1.50;;;;;;;24.96;41.02;97154.22;10417311;28;20076;-52
2023/08/07 15:26:49;;;;;;;2.75;1.35;;;;;;;24.97;41.56;97162.06;10418004;28;20056;-50
2023/08/07 15:31:48;;;;;;;1.65;1.20;;;;;;;24.13;41.35;97027.19;10386718;28;20568;-50
2023/08/07 15:36:47;;;;;;;1.67;1.58;;;;;;;24.81;41.92;97153.44;10417673;28;20041;-49
2023/08/07 15:41:46;;;;;;;2.60;1.73;;;;;;;24.77;42.16;97151.94;10418598;28;20115;-52
2023/08/07 15:46:45;;;;;;;2.08;1.58;;;;;;;25.07;41.69;97162.28;10417452;28;20064;-51
2023/08/07 15:51:44;;;;;;;1.67;1.40;;;;;;;24.90;41.95;97160.81;10416939;28;20971;-51
2023/08/07 15:56:43;;;;;;;1.23;1.15;;;;;;;24.62;42.79;97162.63;10416478;28;20530;-52
2023/08/07 16:01:42;;;;;;;2.15;1.58;;;;;;;24.59;42.72;97167.28;10416038;28;20024;-49
2023/08/07 16:06:41;;;;;;;1.50;1.23;;;;;;;24.30;43.30;97167.44;10415326;28;20037;-50
2023/08/07 16:11:40;;;;;;;2.65;1.60;;;;;;;24.11;44.63;97172.22;10416719;28;20032;-52
2023/08/07 16:16:39;;;;;;;1.80;1.52;;;;;;;23.90;45.75;97159.41;10415797;28;20499;-49
2023/08/07 16:21:38;;;;;;;4.20;1.45;;;;;;;23.72;45.91;97126.97;10412391;28;20891;-50
2023/08/07 16:26:37;;;;;;;2.70;1.40;;;;;;;23.76;45.40;97147.03;10416196;28;20353;-51
2023/08/07 16:31:35;;;;;;;2.13;1.40;;;;;;;23.62;46.20;97139.97;10415232;28;20132;-53
2023/08/07 16:36:36;;;;;;;3.40;1.98;;;;;;;23.65;45.69;97165.41;10415470;28;20108;-51
2023/08/07 16:41:34;;;;;;;2.53;1.60;;;;;;;23.46;46.65;97170.97;10415352;28;20055;-52
2023/08/07 16:46:33;;;;;;;3.42;1.50;;;;;;;23.25;47.56;97180.25;10415070;28;20029;-54
2023/08/07 16:51:32;;;;;;;2.63;1.50;;;;;;;23.04;47.93;97177.97;10414869;28;20020;-51
2023/08/07 16:56:31;;;;;;;1.92;1.80;;;;;;;22.99;48.45;97191.47;10383222;28;20119;-50
2023/08/07 17:01:30;;;;;;;2.13;1.55;;;;;;;22.70;49.10;97203.78;10413618;28;20115;-49
2023/08/07 17:06:29;;;;;;;2.47;1.50;;;;;;;22.44;50.74;97217.66;10416884;28;20060;-49
2023/08/07 17:11:30;;;;;;;2.72;1.83;;;;;;;22.20;51.67;97222.53;10417053;28;20030;-51
2023/08/07 17:16:29;;;;;;;2.67;1.75;;;;;;;21.98;51.89;97210.50;10417049;28;20040;-50
2023/08/07 17:21:28;;;;;;;5.45;1.73;;;;;;;21.90;52.21;97224.16;10417944;28;20163;-49
2023/08/07 17:26:29;;;;;;;2.35;1.67;;;;;;;21.90;52.81;97224.16;10417430;28;20162;-53
2023/08/07 17:31:29;;;;;;;1.88;1.67;;;;;;;21.93;52.90;97223.13;10378641;28;20072;-53
2023/08/07 17:36:27;;;;;;;2.28;1.83;;;;;;;21.96;53.09;97221.13;10416012;28;20071;-50
2023/08/07 17:41:26;;;;;;;3.33;1.92;;;;;;;21.81;53.83;97224.66;10416615;28;20103;-52
2023/08/07 17:46:25;;;;;;;2.72;1.90;;;;;;;21.84;53.39;97219.19;10416435;28;20063;-49
2023/08/07 17:51:39;;;;;;;3.80;2.38;;;;;;;21.79;53.20;97215.94;10415387;28;20037;-52
2023/08/07 17:56:38;;;;;;;4.47;2.47;;;;;;;21.90;52.80;97221.50;10415810;28;20052;-52
2023/08/07 18:01:37;;;;;;;3.95;2.00;;;;;;;21.86;53.08;97230.53;10415412;28;20507;-50
2023/08/07 18:06:36;;;;;;;6.18;3.47;;;;;;;21.79;53.53;97237.09;10412576;28;20454;-50
2023/08/07 18:11:35;;;;;;;2.50;1.92;;;;;;;21.90;53.08;97247.06;10412175;28;20024;-53
2023/08/07 18:16:34;;;;;;;2.72;2.00;;;;;;;21.78;53.28;97222.19;10412769;28;20032;-54
2023/08/07 18:21:33;;;;;;;5.07;2.80;;;;;;;21.88;53.89;97249.78;10418055;28;20028;-52
2023/08/07 18:26:32;;;;;;;3.50;2.70;;;;;;;21.73;55.24;97234.75;10419952;28;20418;-49
2023/08/07 18:31:32;;;;;;;4.50;2.38;;;;;;;21.71;55.56;97260.41;10420187;28;20075;-48
2023/08/07 18:36:31;;;;;;;3.55;2.08;;;;;;;21.63;56.56;97273.16;10421093;28;20462;-50
2023/08/07 18:41:30;;;;;;;2.20;2.00;;;;;;;21.52;57.17;97279.88;10420266;28;20447;-50
2023/08/07 18:46:29;;;;;;;2.30;2.10;;;;;;;21.49;57.55;97292.38;10420050;28;20461;-51
2023/08/07 18:51:30;;;;;;;2.83;1.95;;;;;;;21.44;57.87;97303.19;10419195;28;20514;-51
2023/08/07 18:56:29;;;;;;;4.20;2.95;;;;;;;21.40;58.04;97309.53;10418654;28;20502;-49
2023/08/07 19:01:31;;;;;;;3.65;2.30;;;;;;;21.33;58.45;97311.63;10418875;28;20503;-52
2023/08/07 19:06:32;;;;;;;3.42;2.33;;;;;;;20.90;60.46;97326.13;10418112;28;20610;-51
2023/08/07 19:11:31;;;;;;;3.50;2.20;;;;;;;20.73;61.55;97350.69;10418639;28;20497;-51
2023/08/07 19:16:30;;;;;;;3.13;2.05;;;;;;;20.68;61.18;97306.09;10418207;28;20076;-52
2023/08/07 19:21:29;;;;;;;5.15;2.35;;;;;;;20.84;60.55;97344.88;10417792;28;20067;-49
2023/08/07 19:26:28;;;;;;;3.53;2.13;;;;;;;20.98;60.55;97354.75;10417847;28;20414;-52
2023/08/07 19:31:27;;;;;;;2.70;2.35;;;;;;;21.03;60.63;97348.34;10417699;28;20125;-50
2023/08/07 19:36:26;;;;;;;4.90;2.58;;;;;;;21.08;61.45;97334.94;10417268;28;20020;-51
2023/08/07 19:41:25;;;;;;;5.75;2.55;;;;;;;20.86;65.27;97304.31;10417294;28;20024;-52
2023/08/07 19:46:24;;;;;;;5.07;2.70;;;;;;;20.88;65.71;97320.06;10416356;28;20036;-51
2023/08/07 19:51:23;;;;;;;4.35;3.03;;;;;;;20.69;66.86;97315.69;10417158;28;20024;-48
2023/08/07 19:56:22;;;;;;;5.63;3.00;;;;;;;20.86;67.62;97357.06;10417208;28;20082;-53
2023/08/07 20:01:21;;;;;;;4.78;2.47;;;;;;;20.82;67.30;97375.75;10417177;28;20033;-52
2023/08/07 20:06:20;;;;;;;6.18;2.67;;;;;;;20.58;66.98;97369.88;10418768;28;20056;-51
2023/08/07 20:11:19;;;;;;;2.88;2.22;;;;;;;19.96;68.82;97406.06;10420540;28;20032;-52
2023/08/07 20:16:18;;;;;;;7.00;2.28;;;;;;;19.69;71.24;97437.94;10419822;28;20525;-50
2023/08/07 20:21:18;;;;;;;4.22;2.60;;;;;;;19.80;70.97;97446.22;10419810;28;20039;-51
2023/08/07 20:26:17;;;;;;;20.15;3.20;;;;;;;19.90;70.82;97490.59;10419802;28;20503;-52
2023/08/07 20:31:16;;;;;;;5.28;2.95;;;;;;;19.78;79.91;97484.94;10419920;28;20025;-51
2023/08/07 20:36:15;;;;;;;4.72;2.97;;;;;;;18.32;86.04;97518.66;10399341;28;20032;-51
2023/08/07 20:41:14;;;;;;;9.63;3.75;;;;;;;17.81;93.63;97514.31;10419154;28;20526;-49
2023/08/07 20:46:14;;;;;;;10.32;5.18;;;;;;;16.85;100.00;97533.03;10418034;28;20056;-50
2023/08/07 20:51:13;;;;;;;6.97;4.63;;;;;;;16.69;100.00;97523.88;10418347;28;20066;-50
2023/08/07 20:56:12;;;;;;;8.52;5.30;;;;;;;16.63;100.00;97509.19;10380526;28;20136;-50
2023/08/07 21:01:11;;;;;;;12.55;5.57;;;;;;;16.76;100.00;97501.81;10417665;28;20067;-48
2023/08/07 21:06:10;;;;;;;8.40;5.13;;;;;;;17.02;100.00;97513.31;10415699;28;20021;-49
2023/08/07 21:11:09;;;;;;;;;;;;;;;17.20;100.00;97536.34;10414798;28;20494;-50
2023/08/07 21:16:08;;;;;;;7.67;4.60;;;;;;;17.09;100.00;97578.59;10414969;28;20295;-50
2023/08/07 21:21:06;;;;;;;;;;;;;;;16.28;100.00;97592.22;10414267;28;20475;-50
2023/08/07 21:26:05;;;;;;;5.80;4.37;;;;;;;15.25;100.00;97613.00;10413618;28;19986;-48
2023/08/07 21:31:06;;;;;;;;;;;;;;;15.15;100.00;97611.44;10409446;28;20521;-50
2023/08/07 21:36:05;;;;;;;4.25;3.50;;;;;;;14.83;100.00;97609.53;10412785;28;19959;-50
2023/08/07 21:41:04;;;;;;;4.95;3.50;;;;;;;14.57;100.00;97615.25;10412498;28;20063;-49
2023/08/07 21:46:03;;;;;;;;;;;;;;;14.43;100.00;97620.72;10414675;28;20027;-51
2023/08/07 21:51:02;;;;;;;4.40;3.42;;;;;;;14.46;100.00;97627.66;10413216;28;19908;-51
2023/08/07 21:56:01;;;;;;;;;;;;;;;14.53;100.00;97629.25;10413051;28;20024;-48
2023/08/07 22:01:00;;;;;;;3.08;2.78;;;;;;;14.62;100.00;97629.06;10412893;28;20433;-48
2023/08/07 22:05:59;;;;;;;2.80;2.50;;;;;;;14.67;100.00;97616.78;10413155;28;20056;-49
2023/08/07 22:10:58;;;;;;;;;;;;;;;14.76;100.00;97615.78;10413372;28;20511;-48
2023/08/07 22:15:57;;;;;;;4.10;3.17;;;;;;;14.94;100.00;97606.69;10412606;28;19955;-50
2023/08/07 22:20:57;;;;;;;2.80;2.40;;;;;;;14.92;100.00;97591.06;10412742;28;20127;-50
2023/08/07 22:25:56;;;;;;;;;;;;;;;14.91;100.00;97584.09;10412522;28;20035;-50
2023/08/07 22:30:55;;;;;;;5.03;3.13;;;;;;;14.95;100.00;97557.03;10397931;28;19955;-48
2023/08/07 22:35:54;;;;;;;;;;;;;;;15.09;100.00;97537.56;10409909;28;20024;-49
2023/08/07 22:40:54;;;;;;;5.20;3.58;;;;;;;15.23;100.00;97544.19;10411949;28;19999;-51
2023/08/07 22:45:53;;;;;;;5.78;3.20;;;;;;;15.22;100.00;97554.69;10411858;28;20399;-50
2023/08/07 22:50:52;;;;;;;;;;;;;;;15.06;100.00;97567.25;10412411;28;20071;-49
2023/08/07 22:55:52;;;;;;;5.28;3.30;;;;;;;15.02;100.00;97557.75;10412077;28;19904;-51
2023/08/07 23:00:51;;;;;;;5.78;4.03;;;;;;;15.01;100.00;97569.97;10410721;28;20482;-48
2023/08/07 23:05:50;;;;;;;;;;;;;;;14.95;100.00;97572.69;10415084;28;20486;-51
2023/08/07 23:10:49;;;;;;;6.33;3.63;;;;;;;14.91;100.00;97568.44;10422777;28;20318;-48
2023/08/07 23:15:48;;;;;;;4.13;3.20;;;;;;;14.92;100.00;97582.34;10422171;28;20048;-49